Archival Weather

Fukuoka

Fukuoka, Japan (RJFF)

Report from: Tuesday, August 16, 2022 7:00 AM JST
Current time: Sunday, November 27, 2022 5:34 PM JST

Current weather
Weather history
Weather forecast

Present weatherLight rain showers, thunderstorm with rain
Temperature27.0°C (80.6°F)
Heat index30.6°C (87.0°F)
Dew point25.0°C (77.0°F)
Winds 12 kts (6.2 m/s, 13.8 mph) South-Southeast (160°)
Visibility6.2 mi. (10 km)
Clouds Few clouds 500 ft. (152 m)
Ceiling: Broken clouds 3,500 ft. (1,067 m)
Broken clouds 5,000 ft. (1,524 m)
Altimeter29.74 in.Hg (1007 mB)
Relative humidity89 %
Density altitude2,017 ft. (615 m)
Flight conditions Visual Meteorological Conditions
Raw dataRJFF 152200Z 16012KT 9999 -SHRA FEW005 BKN035 BKN050 27/25 Q1007 TEMPO 3000 TSRA BR
An error has occurred. This application may no longer respond until reloaded. Reload 🗙